createdAt,value
2022-11-21T00:00:14.361Z,-0.75
2022-11-21T00:00:34.379Z,-0.75
2022-11-21T00:00:54.409Z,-0.75
2022-11-21T00:01:14.425Z,-0.73
2022-11-21T00:01:34.584Z,-0.75
2022-11-21T00:01:54.573Z,-0.75
2022-11-21T00:02:14.562Z,-0.75
2022-11-21T00:02:34.560Z,-0.75
2022-11-21T00:02:54.583Z,-0.75
2022-11-21T00:03:14.614Z,-0.75
2022-11-21T00:03:34.727Z,-0.72
2022-11-21T00:03:54.679Z,-0.75
2022-11-21T00:04:14.756Z,-0.76
2022-11-21T00:04:34.793Z,-0.75
2022-11-21T00:04:54.823Z,-0.76
2022-11-21T00:05:14.852Z,-0.76
2022-11-21T00:05:34.889Z,-0.72
2022-11-21T00:05:54.942Z,-0.76
2022-11-21T00:06:14.962Z,-0.76
2022-11-21T00:06:34.995Z,-0.75
2022-11-21T00:06:55.012Z,-0.75
2022-11-21T00:07:15.109Z,-0.7
2022-11-21T00:07:35.123Z,-0.75
2022-11-21T00:07:55.131Z,-0.75
2022-11-21T00:08:15.158Z,-0.75
2022-11-21T00:08:35.184Z,-0.75
2022-11-21T00:08:55.232Z,-0.72
2022-11-21T00:09:15.249Z,-0.72
2022-11-21T00:09:35.268Z,-0.72
2022-11-21T00:09:55.290Z,-0.73
2022-11-21T00:10:15.361Z,-0.72
2022-11-21T00:10:35.356Z,-0.72
2022-11-21T00:10:55.392Z,-0.72
2022-11-21T00:11:15.424Z,-0.73
2022-11-21T00:11:35.490Z,-0.73
2022-11-21T00:11:55.531Z,-0.72
2022-11-21T00:12:15.556Z,-0.75
2022-11-21T00:12:35.586Z,-0.73
2022-11-21T00:12:55.634Z,-0.73
2022-11-21T00:13:15.678Z,-0.72
2022-11-21T00:13:35.693Z,-0.72
2022-11-21T00:13:55.728Z,-0.73
2022-11-21T00:14:15.791Z,-0.73
2022-11-21T00:14:35.821Z,-0.73
2022-11-21T00:14:55.879Z,-0.73
2022-11-21T00:15:15.915Z,-0.7
2022-11-21T00:15:35.953Z,-0.69
2022-11-21T00:15:55.990Z,-0.7
2022-11-21T00:16:16.057Z,-0.73
2022-11-21T00:16:36.099Z,-0.72
2022-11-21T00:16:57.573Z,-0.72
2022-11-21T00:17:16.183Z,-0.72
2022-11-21T00:17:36.209Z,-0.73
2022-11-21T00:17:56.223Z,-0.72
2022-11-21T00:18:16.344Z,-0.7
2022-11-21T00:18:36.320Z,-0.72
2022-11-21T00:18:56.371Z,-0.7
2022-11-21T00:19:16.405Z,-0.72
2022-11-21T00:19:36.430Z,-0.7
2022-11-21T00:19:56.455Z,-0.72
2022-11-21T00:20:16.489Z,-0.7
2022-11-21T00:20:36.529Z,-0.72
2022-11-21T00:20:56.586Z,-0.7
2022-11-21T00:21:16.602Z,-0.73
2022-11-21T00:21:36.655Z,-0.69
2022-11-21T00:21:56.685Z,-0.72
2022-11-21T00:22:16.721Z,-0.72
2022-11-21T00:22:36.785Z,-0.7
2022-11-21T00:22:56.831Z,-0.72
2022-11-21T00:23:16.865Z,-0.69
2022-11-21T00:23:36.912Z,-0.7
2022-11-21T00:23:56.957Z,-0.72
2022-11-21T00:24:16.995Z,-0.72
2022-11-21T00:24:37.038Z,-0.7
2022-11-21T00:24:57.093Z,-0.7
2022-11-21T00:25:17.111Z,-0.69
2022-11-21T00:25:37.160Z,-0.7
2022-11-21T00:25:57.187Z,-0.72
2022-11-21T00:26:17.213Z,-0.7
2022-11-21T00:26:37.255Z,-0.72
2022-11-21T00:26:57.290Z,-0.69
2022-11-21T00:27:17.328Z,-0.7
2022-11-21T00:27:37.343Z,-0.7
2022-11-21T00:27:57.380Z,-0.68
2022-11-21T00:28:17.406Z,-0.69
2022-11-21T00:28:37.453Z,-0.68
2022-11-21T00:28:57.477Z,-0.7
2022-11-21T00:29:17.513Z,-0.7
2022-11-21T00:29:37.527Z,-0.68
2022-11-21T00:29:57.559Z,-0.72
2022-11-21T00:30:17.589Z,-0.69
2022-11-21T00:30:37.626Z,-0.7
2022-11-21T00:30:57.644Z,-0.69
2022-11-21T00:31:17.677Z,-0.68
2022-11-21T00:31:37.717Z,-0.68
2022-11-21T00:31:57.756Z,-0.68
2022-11-21T00:32:17.815Z,-0.7
2022-11-21T00:32:37.843Z,-0.7
2022-11-21T00:32:57.864Z,-0.68
2022-11-21T00:33:17.891Z,-0.68
2022-11-21T00:33:37.929Z,-0.69
2022-11-21T00:33:57.927Z,-0.7
2022-11-21T00:34:17.950Z,-0.69
2022-11-21T00:34:38.037Z,-0.7
2022-11-21T00:34:58.057Z,-0.69
2022-11-21T00:35:18.129Z,-0.66
2022-11-21T00:35:38.141Z,-0.68
2022-11-21T00:35:58.183Z,-0.68
2022-11-21T00:36:18.202Z,-0.7
2022-11-21T00:36:38.225Z,-0.68
2022-11-21T00:36:58.264Z,-0.68
2022-11-21T00:37:18.369Z,-0.7
2022-11-21T00:37:38.344Z,-0.69
2022-11-21T00:37:58.370Z,-0.7
2022-11-21T00:38:18.425Z,-0.66
2022-11-21T00:38:38.466Z,-0.69
2022-11-21T00:38:58.476Z,-0.69
2022-11-21T00:39:18.516Z,-0.68
2022-11-21T00:39:38.560Z,-0.68
2022-11-21T00:39:58.665Z,-0.68
2022-11-21T00:40:18.610Z,-0.69
2022-11-21T00:40:38.668Z,-0.68
2022-11-21T00:40:58.706Z,-0.69
2022-11-21T00:41:18.739Z,-0.68
2022-11-21T00:41:38.772Z,-0.66
2022-11-21T00:41:58.786Z,-0.68
2022-11-21T00:42:18.825Z,-0.66
2022-11-21T00:42:38.851Z,-0.66
2022-11-21T00:42:58.904Z,-0.68
2022-11-21T00:43:18.955Z,-0.68
2022-11-21T00:43:39.019Z,-0.69
2022-11-21T00:43:59.026Z,-0.66
2022-11-21T00:44:19.070Z,-0.65
2022-11-21T00:44:39.130Z,-0.69
2022-11-21T00:44:59.151Z,-0.66
2022-11-21T00:45:24.002Z,-0.66
2022-11-21T00:45:39.246Z,-0.69
2022-11-21T00:45:59.287Z,-0.68
2022-11-21T00:46:19.316Z,-0.68
2022-11-21T00:46:39.375Z,-0.66
2022-11-21T00:46:59.377Z,-0.66
2022-11-21T00:47:19.430Z,-0.66
2022-11-21T00:47:39.458Z,-0.65
2022-11-21T00:47:59.489Z,-0.66
2022-11-21T00:48:19.597Z,-0.68
2022-11-21T00:48:39.551Z,-0.66
2022-11-21T00:48:59.603Z,-0.66
2022-11-21T00:49:19.656Z,-0.66
2022-11-21T00:49:39.673Z,-0.62
2022-11-21T00:49:59.694Z,-0.65
2022-11-21T00:50:19.737Z,-0.65
2022-11-21T00:50:39.770Z,-0.66
2022-11-21T00:50:59.816Z,-0.66
2022-11-21T00:51:19.852Z,-0.64
2022-11-21T00:51:39.921Z,-0.65
2022-11-21T00:51:59.975Z,-0.66
2022-11-21T00:52:20.041Z,-0.65
2022-11-21T00:52:40.089Z,-0.65
2022-11-21T00:53:00.127Z,-0.66
2022-11-21T00:53:20.168Z,-0.64
2022-11-21T00:53:40.202Z,-0.66
2022-11-21T00:54:00.215Z,-0.64
2022-11-21T00:54:20.333Z,-0.64
2022-11-21T00:54:40.290Z,-0.65
2022-11-21T00:55:00.316Z,-0.65
2022-11-21T00:55:20.356Z,-0.65
2022-11-21T00:55:40.365Z,-0.64
2022-11-21T00:56:00.395Z,-0.66
2022-11-21T00:56:20.451Z,-0.64
2022-11-21T00:56:40.468Z,-0.64
2022-11-21T00:57:00.500Z,-0.68
2022-11-21T00:57:20.521Z,-0.64
2022-11-21T00:57:40.552Z,-0.64
2022-11-21T00:58:00.583Z,-0.64
2022-11-21T00:58:20.655Z,-0.64
2022-11-21T00:58:40.687Z,-0.62
2022-11-21T00:59:00.719Z,-0.62
2022-11-21T00:59:20.745Z,-0.65
2022-11-21T00:59:40.781Z,-0.65
2022-11-21T01:00:00.805Z,-0.62
2022-11-21T01:00:20.829Z,-0.64
2022-11-21T01:00:40.940Z,-0.65
2022-11-21T01:01:01.006Z,-0.64
2022-11-21T01:01:20.965Z,-0.61
2022-11-21T01:01:40.943Z,-0.59
2022-11-21T01:02:00.972Z,-0.62
2022-11-21T01:02:21.008Z,-0.64
2022-11-21T01:02:41.023Z,-0.61
2022-11-21T01:03:01.056Z,-0.62
2022-11-21T01:03:21.101Z,-0.62
2022-11-21T01:03:41.153Z,-0.62
2022-11-21T01:04:01.164Z,-0.59
2022-11-21T01:04:21.208Z,-0.62
2022-11-21T01:04:41.223Z,-0.62
2022-11-21T01:05:01.270Z,-0.62
2022-11-21T01:05:21.318Z,-0.62
2022-11-21T01:05:41.365Z,-0.62
2022-11-21T01:06:01.399Z,-0.62
2022-11-21T01:06:21.427Z,-0.59
2022-11-21T01:06:41.457Z,-0.59
2022-11-21T01:07:01.559Z,-0.59
2022-11-21T01:07:21.591Z,-0.61
2022-11-21T01:07:41.639Z,-0.59
2022-11-21T01:08:01.606Z,-0.61
2022-11-21T01:08:21.643Z,-0.62
2022-11-21T01:08:41.660Z,-0.62
2022-11-21T01:09:01.696Z,-0.59
2022-11-21T01:09:21.710Z,-0.59
2022-11-21T01:09:41.737Z,-0.59
2022-11-21T01:10:01.763Z,-0.59
2022-11-21T01:10:21.790Z,-0.61
2022-11-21T01:10:41.817Z,-0.61
2022-11-21T01:11:01.854Z,-0.61
2022-11-21T01:11:21.934Z,-0.61
2022-11-21T01:11:41.964Z,-0.59
2022-11-21T01:12:02.001Z,-0.62
2022-11-21T01:12:22.063Z,-0.59
2022-11-21T01:12:42.104Z,-0.61
2022-11-21T01:13:02.164Z,-0.58
2022-11-21T01:13:22.206Z,-0.58
2022-11-21T01:13:42.258Z,-0.59
2022-11-21T01:14:02.280Z,-0.58
2022-11-21T01:14:22.296Z,-0.59
2022-11-21T01:14:42.361Z,-0.57
2022-11-21T01:15:02.427Z,-0.58
2022-11-21T01:15:22.436Z,-0.58
2022-11-21T01:15:42.458Z,-0.58
2022-11-21T01:16:02.492Z,-0.59
2022-11-21T01:16:22.541Z,-0.58
2022-11-21T01:16:42.557Z,-0.61
2022-11-21T01:17:02.574Z,-0.59
2022-11-21T01:17:22.662Z,-0.61
2022-11-21T01:17:42.679Z,-0.61
2022-11-21T01:18:02.713Z,-0.58
2022-11-21T01:18:22.749Z,-0.58
2022-11-21T01:18:42.788Z,-0.58
2022-11-21T01:19:02.810Z,-0.59
2022-11-21T01:19:22.857Z,-0.59
2022-11-21T01:19:42.907Z,-0.57
2022-11-21T01:20:02.934Z,-0.58
2022-11-21T01:20:22.966Z,-0.58
2022-11-21T01:20:43.045Z,-0.58
2022-11-21T01:21:03.066Z,-0.55
2022-11-21T01:21:23.135Z,-0.57
2022-11-21T01:21:43.098Z,-0.57
2022-11-21T01:22:03.124Z,-0.55
2022-11-21T01:22:23.179Z,-0.57
2022-11-21T01:22:43.243Z,-0.55
2022-11-21T01:23:03.263Z,-0.57
2022-11-21T01:23:23.287Z,-0.57
2022-11-21T01:23:43.314Z,-0.55
2022-11-21T01:24:03.346Z,-0.55
2022-11-21T01:24:23.397Z,-0.55
2022-11-21T01:24:43.418Z,-0.57
2022-11-21T01:25:03.490Z,-0.54
2022-11-21T01:25:23.536Z,-0.55
2022-11-21T01:25:43.594Z,-0.55
2022-11-21T01:26:03.688Z,-0.54
2022-11-21T01:26:23.682Z,-0.57
2022-11-21T01:26:43.754Z,-0.55
2022-11-21T01:27:03.753Z,-0.55
2022-11-21T01:27:23.783Z,-0.57
2022-11-21T01:27:43.811Z,-0.54
2022-11-21T01:28:03.846Z,-0.55
2022-11-21T01:28:23.883Z,-0.55
2022-11-21T01:28:43.933Z,-0.54
2022-11-21T01:29:03.970Z,-0.55
2022-11-21T01:29:23.994Z,-0.54
2022-11-21T01:29:44.030Z,-0.54
2022-11-21T01:30:04.044Z,-0.55
2022-11-21T01:30:24.061Z,-0.54
2022-11-21T01:30:44.086Z,-0.55
2022-11-21T01:31:04.133Z,-0.52
2022-11-21T01:31:24.158Z,-0.54
2022-11-21T01:31:44.196Z,-0.54
2022-11-21T01:32:04.274Z,-0.52
2022-11-21T01:32:24.320Z,-0.54
2022-11-21T01:32:44.392Z,-0.51
2022-11-21T01:33:04.411Z,-0.52
2022-11-21T01:33:24.447Z,-0.51
2022-11-21T01:33:44.489Z,-0.52
2022-11-21T01:34:04.519Z,-0.54
2022-11-21T01:34:24.676Z,-0.54
2022-11-21T01:34:44.587Z,-0.52
2022-11-21T01:35:04.654Z,-0.54
2022-11-21T01:35:24.723Z,-0.52
2022-11-21T01:35:44.752Z,-0.52
2022-11-21T01:36:04.791Z,-0.54
2022-11-21T01:36:24.810Z,-0.49
2022-11-21T01:36:44.863Z,-0.52
2022-11-21T01:37:04.895Z,-0.52
2022-11-21T01:37:24.917Z,-0.52
2022-11-21T01:37:44.957Z,-0.51
2022-11-21T01:38:04.988Z,-0.51
2022-11-21T01:38:25.026Z,-0.51
2022-11-21T01:38:45.042Z,-0.51
2022-11-21T01:39:05.080Z,-0.51
2022-11-21T01:39:25.138Z,-0.52
2022-11-21T01:39:45.168Z,-0.55
2022-11-21T01:40:05.217Z,-0.49
2022-11-21T01:40:25.260Z,-0.51
2022-11-21T01:40:45.290Z,-0.51
2022-11-21T01:41:05.315Z,-0.51
2022-11-21T01:41:25.346Z,-0.52
2022-11-21T01:41:45.393Z,-0.51
2022-11-21T01:42:05.418Z,-0.51
2022-11-21T01:42:25.465Z,-0.52
2022-11-21T01:42:45.516Z,-0.51
2022-11-21T01:43:05.582Z,-0.51
2022-11-21T01:43:25.659Z,-0.51
2022-11-21T01:43:45.645Z,-0.49
2022-11-21T01:44:05.688Z,-0.52
2022-11-21T01:44:26.120Z,-0.52
2022-11-21T01:44:45.742Z,-0.51
2022-11-21T01:45:05.803Z,-0.51
2022-11-21T01:45:25.834Z,-0.54
2022-11-21T01:45:45.861Z,-0.49
2022-11-21T01:46:05.882Z,-0.49
2022-11-21T01:46:25.970Z,-0.49
2022-11-21T01:46:45.954Z,-0.49
2022-11-21T01:47:05.985Z,-0.49
2022-11-21T01:47:26.011Z,-0.49
2022-11-21T01:47:46.060Z,-0.52
2022-11-21T01:48:06.095Z,-0.52
2022-11-21T01:48:26.140Z,-0.49
2022-11-21T01:48:46.174Z,-0.49
2022-11-21T01:49:06.199Z,-0.51
2022-11-21T01:49:26.290Z,-0.51
2022-11-21T01:49:46.308Z,-0.51
2022-11-21T01:50:11.810Z,-0.51
2022-11-21T01:50:26.359Z,-0.54
2022-11-21T01:50:46.442Z,-0.48
2022-11-21T01:51:06.471Z,-0.52
2022-11-21T01:51:26.488Z,-0.51
2022-11-21T01:51:46.529Z,-0.51
2022-11-21T01:52:06.549Z,-0.51
2022-11-21T01:52:26.654Z,-0.51
2022-11-21T01:52:46.640Z,-0.51
2022-11-21T01:53:06.662Z,-0.52
2022-11-21T01:53:26.694Z,-0.51
2022-11-21T01:53:46.734Z,-0.51
2022-11-21T01:54:06.758Z,-0.49
2022-11-21T01:54:27.200Z,-0.52
2022-11-21T01:54:46.816Z,-0.51
2022-11-21T01:55:06.859Z,-0.52
2022-11-21T01:55:26.895Z,-0.51
2022-11-21T01:55:46.922Z,-0.52
2022-11-21T01:56:06.950Z,-0.49
2022-11-21T01:56:26.991Z,-0.51
2022-11-21T01:56:47.069Z,-0.52
2022-11-21T01:57:07.040Z,-0.51
2022-11-21T01:57:27.058Z,-0.48
2022-11-21T01:57:47.114Z,-0.51
2022-11-21T01:58:07.156Z,-0.49
2022-11-21T01:58:27.192Z,-0.49
2022-11-21T01:58:47.208Z,-0.51
2022-11-21T01:59:07.236Z,-0.51
2022-11-21T01:59:27.312Z,-0.51
2022-11-21T01:59:47.313Z,-0.51
2022-11-21T02:00:07.331Z,-0.49
2022-11-21T02:00:27.379Z,-0.51
2022-11-21T02:00:47.470Z,-0.51
2022-11-21T02:01:07.647Z,-0.51
2022-11-21T02:01:27.645Z,-0.49
2022-11-21T02:01:47.552Z,-0.49
2022-11-21T02:02:07.613Z,-0.47
2022-11-21T02:02:27.650Z,-0.49
2022-11-21T02:02:47.704Z,-0.48
2022-11-21T02:03:07.727Z,-0.51
2022-11-21T02:03:27.771Z,-0.49
2022-11-21T02:03:47.800Z,-0.51
2022-11-21T02:04:07.864Z,-0.51
2022-11-21T02:04:28.143Z,-0.51
2022-11-21T02:04:47.912Z,-0.52
2022-11-21T02:05:07.987Z,-0.51
2022-11-21T02:05:28.001Z,-0.51
2022-11-21T02:05:48.023Z,-0.51
2022-11-21T02:06:08.061Z,-0.51
2022-11-21T02:06:28.071Z,-0.49
2022-11-21T02:06:48.099Z,-0.51
2022-11-21T02:07:08.345Z,-0.51
2022-11-21T02:07:28.182Z,-0.48
2022-11-21T02:07:48.190Z,-0.49
2022-11-21T02:08:08.205Z,-0.51
2022-11-21T02:08:28.234Z,-0.51
2022-11-21T02:08:48.282Z,-0.49
2022-11-21T02:09:08.294Z,-0.47
2022-11-21T02:09:28.342Z,-0.48
2022-11-21T02:09:48.365Z,-0.49
2022-11-21T02:10:08.418Z,-0.49
2022-11-21T02:10:28.466Z,-0.51
2022-11-21T02:10:48.529Z,-0.51
2022-11-21T02:11:08.560Z,-0.51
2022-11-21T02:11:28.601Z,-0.51
2022-11-21T02:11:48.661Z,-0.51
2022-11-21T02:12:08.686Z,-0.52
2022-11-21T02:12:28.718Z,-0.51
2022-11-21T02:12:48.754Z,-0.51
2022-11-21T02:13:08.788Z,-0.49
2022-11-21T02:13:28.831Z,-0.51
2022-11-21T02:13:48.865Z,-0.49
2022-11-21T02:14:08.896Z,-0.51
2022-11-21T02:14:29.228Z,-0.49
2022-11-21T02:14:48.991Z,-0.51
2022-11-21T02:15:09.023Z,-0.49
2022-11-21T02:15:29.042Z,-0.51
2022-11-21T02:15:49.113Z,-0.51
2022-11-21T02:16:09.119Z,-0.49
2022-11-21T02:16:29.139Z,-0.48
2022-11-21T02:16:49.170Z,-0.48
2022-11-21T02:17:09.203Z,-0.51
2022-11-21T02:17:29.242Z,-0.49
2022-11-21T02:17:49.291Z,-0.49
2022-11-21T02:18:09.307Z,-0.49
2022-11-21T02:18:29.337Z,-0.51
2022-11-21T02:18:49.378Z,-0.49
2022-11-21T02:19:09.406Z,-0.47
2022-11-21T02:19:29.424Z,-0.48
2022-11-21T02:19:49.457Z,-0.48
2022-11-21T02:20:09.482Z,-0.48
2022-11-21T02:20:29.538Z,-0.49
2022-11-21T02:20:49.554Z,-0.49
2022-11-21T02:21:09.623Z,-0.48
2022-11-21T02:21:29.679Z,-0.48
2022-11-21T02:21:49.694Z,-0.48
2022-11-21T02:22:09.795Z,-0.51
2022-11-21T02:22:29.772Z,-0.49
2022-11-21T02:22:49.847Z,-0.48
2022-11-21T02:23:09.877Z,-0.48
2022-11-21T02:23:29.918Z,-0.48
2022-11-21T02:23:49.949Z,-0.48
2022-11-21T02:24:10.005Z,-0.49
2022-11-21T02:24:30.299Z,-0.49
2022-11-21T02:24:50.054Z,-0.51
2022-11-21T02:25:10.102Z,-0.49
2022-11-21T02:25:30.214Z,-0.49
2022-11-21T02:25:50.166Z,-0.51
2022-11-21T02:26:10.189Z,-0.49
2022-11-21T02:26:30.245Z,-0.49
2022-11-21T02:26:50.287Z,-0.52
2022-11-21T02:27:10.345Z,-0.49
2022-11-21T02:27:30.403Z,-0.49
2022-11-21T02:27:50.450Z,-0.49
2022-11-21T02:28:10.486Z,-0.49
2022-11-21T02:28:30.549Z,-0.49
2022-11-21T02:28:50.620Z,-0.49
2022-11-21T02:29:10.627Z,-0.48
2022-11-21T02:29:30.660Z,-0.47
2022-11-21T02:29:50.700Z,-0.49
2022-11-21T02:30:10.724Z,-0.48
2022-11-21T02:30:30.760Z,-0.48
2022-11-21T02:30:50.776Z,-0.51
2022-11-21T02:31:10.818Z,-0.48
2022-11-21T02:31:30.840Z,-0.49
2022-11-21T02:31:50.879Z,-0.49
2022-11-21T02:32:10.917Z,-0.51
2022-11-21T02:32:30.992Z,-0.49
2022-11-21T02:32:51.023Z,-0.51
2022-11-21T02:33:11.057Z,-0.48
2022-11-21T02:33:31.095Z,-0.51
2022-11-21T02:33:51.130Z,-0.51
2022-11-21T02:34:11.169Z,-0.49
2022-11-21T02:34:31.180Z,-0.48
2022-11-21T02:34:51.233Z,-0.48
2022-11-21T02:35:11.254Z,-0.52
2022-11-21T02:35:31.318Z,-0.49
2022-11-21T02:35:51.312Z,-0.49
2022-11-21T02:36:11.338Z,-0.51
2022-11-21T02:36:31.391Z,-0.48
2022-11-21T02:36:51.445Z,-0.48
2022-11-21T02:37:11.488Z,-0.49
2022-11-21T02:37:31.522Z,-0.49
2022-11-21T02:37:51.601Z,-0.48
2022-11-21T02:38:11.629Z,-0.48
2022-11-21T02:38:31.683Z,-0.51
2022-11-21T02:38:51.689Z,-0.51
2022-11-21T02:39:11.783Z,-0.48
2022-11-21T02:39:31.749Z,-0.51
2022-11-21T02:39:51.772Z,-0.49
2022-11-21T02:40:11.807Z,-0.49
2022-11-21T02:40:31.824Z,-0.51
2022-11-21T02:40:51.844Z,-0.51
2022-11-21T02:41:11.874Z,-0.49
2022-11-21T02:41:31.898Z,-0.52
2022-11-21T02:41:51.941Z,-0.49
2022-11-21T02:42:11.963Z,-0.52
2022-11-21T02:42:32.019Z,-0.49
2022-11-21T02:42:52.970Z,-0.48
2022-11-21T02:43:12.106Z,-0.52
2022-11-21T02:43:32.140Z,-0.48
2022-11-21T02:43:52.174Z,-0.51
2022-11-21T02:44:12.192Z,-0.51
2022-11-21T02:44:32.246Z,-0.51
2022-11-21T02:44:52.288Z,-0.49
2022-11-21T02:45:12.380Z,-0.49
2022-11-21T02:45:32.372Z,-0.49
2022-11-21T02:45:52.410Z,-0.49
2022-11-21T02:46:12.447Z,-0.51
2022-11-21T02:46:32.475Z,-0.51
2022-11-21T02:46:52.522Z,-0.52
2022-11-21T02:47:12.545Z,-0.48
2022-11-21T02:47:32.597Z,-0.51
2022-11-21T02:47:52.621Z,-0.49
2022-11-21T02:48:12.661Z,-0.52
2022-11-21T02:48:32.720Z,-0.49
2022-11-21T02:48:52.771Z,-0.49
2022-11-21T02:49:12.808Z,-0.51
2022-11-21T02:49:32.837Z,-0.51
2022-11-21T02:49:52.859Z,-0.49
2022-11-21T02:50:12.896Z,-0.52
2022-11-21T02:50:32.945Z,-0.52
2022-11-21T02:50:52.973Z,-0.49
2022-11-21T02:51:13.008Z,-0.54
2022-11-21T02:51:33.040Z,-0.52
2022-11-21T02:51:53.064Z,-0.54
2022-11-21T02:52:13.103Z,-0.52
2022-11-21T02:52:33.132Z,-0.52
2022-11-21T02:52:53.160Z,-0.52
2022-11-21T02:53:13.175Z,-0.52
2022-11-21T02:53:33.207Z,-0.52
2022-11-21T02:53:53.225Z,-0.54
2022-11-21T02:54:13.247Z,-0.51
2022-11-21T02:54:33.281Z,-0.51
2022-11-21T02:54:53.309Z,-0.54
2022-11-21T02:55:13.337Z,-0.52
2022-11-21T02:55:33.379Z,-0.52
2022-11-21T02:55:53.397Z,-0.54
2022-11-21T02:56:13.434Z,-0.55
2022-11-21T02:56:33.453Z,-0.52
2022-11-21T02:56:53.481Z,-0.54
2022-11-21T02:57:13.513Z,-0.54
2022-11-21T02:57:33.598Z,-0.54
2022-11-21T02:57:53.635Z,-0.52
2022-11-21T02:58:13.674Z,-0.54
2022-11-21T02:58:33.690Z,-0.52
2022-11-21T02:58:53.728Z,-0.54
2022-11-21T02:59:13.762Z,-0.54
2022-11-21T02:59:33.803Z,-0.54
2022-11-21T02:59:53.840Z,-0.55
2022-11-21T03:00:13.863Z,-0.52
2022-11-21T03:00:33.912Z,-0.52
2022-11-21T03:00:53.967Z,-0.54
2022-11-21T03:01:14.026Z,-0.54
2022-11-21T03:01:34.023Z,-0.54
2022-11-21T03:01:54.055Z,-0.54
2022-11-21T03:02:14.085Z,-0.52
2022-11-21T03:02:34.116Z,-0.52
2022-11-21T03:02:54.138Z,-0.52
2022-11-21T03:03:14.158Z,-0.54
2022-11-21T03:03:34.199Z,-0.54
2022-11-21T03:03:54.220Z,-0.52
2022-11-21T03:04:14.252Z,-0.51
2022-11-21T03:04:34.309Z,-0.51
2022-11-21T03:04:54.325Z,-0.54
2022-11-21T03:05:14.352Z,-0.54
2022-11-21T03:05:34.429Z,-0.51
2022-11-21T03:05:54.450Z,-0.51
2022-11-21T03:06:14.496Z,-0.49
2022-11-21T03:06:34.544Z,-0.51
2022-11-21T03:06:54.596Z,-0.49
2022-11-21T03:07:14.785Z,-0.52
2022-11-21T03:07:34.741Z,-0.49
2022-11-21T03:07:54.692Z,-0.52
2022-11-21T03:08:14.738Z,-0.51
2022-11-21T03:08:34.771Z,-0.51
2022-11-21T03:08:54.796Z,-0.51
2022-11-21T03:09:14.827Z,-0.52
2022-11-21T03:09:34.868Z,-0.52
2022-11-21T03:09:54.869Z,-0.54
2022-11-21T03:10:14.921Z,-0.51
2022-11-21T03:10:34.982Z,-0.51
2022-11-21T03:10:55.031Z,-0.51
2022-11-21T03:11:15.061Z,-0.52
2022-11-21T03:11:35.091Z,-0.51
2022-11-21T03:11:55.142Z,-0.52
2022-11-21T03:12:15.168Z,-0.54
2022-11-21T03:12:35.196Z,-0.52
2022-11-21T03:12:55.231Z,-0.55
2022-11-21T03:13:15.280Z,-0.52
2022-11-21T03:13:35.325Z,-0.57
2022-11-21T03:13:55.350Z,-0.54
2022-11-21T03:14:15.399Z,-0.57
2022-11-21T03:14:35.435Z,-0.55
2022-11-21T03:14:55.510Z,-0.57
2022-11-21T03:15:15.526Z,-0.58
2022-11-21T03:15:35.559Z,-0.58
2022-11-21T03:15:55.591Z,-0.59
2022-11-21T03:16:15.652Z,-0.59
2022-11-21T03:16:35.695Z,-0.61
2022-11-21T03:16:55.729Z,-0.62
2022-11-21T03:17:15.780Z,-0.64
2022-11-21T03:17:35.835Z,-0.62
2022-11-21T03:17:55.855Z,-0.65
2022-11-21T03:18:15.882Z,-0.66
2022-11-21T03:18:35.936Z,-0.65
2022-11-21T03:18:55.971Z,-0.66
2022-11-21T03:19:16.001Z,-0.65
2022-11-21T03:19:36.036Z,-0.65
2022-11-21T03:19:56.058Z,-0.69
2022-11-21T03:20:16.082Z,-0.68
2022-11-21T03:20:36.113Z,-0.7
2022-11-21T03:20:56.145Z,-0.7
2022-11-21T03:21:16.227Z,-0.69
2022-11-21T03:21:36.207Z,-0.69
2022-11-21T03:21:56.238Z,-0.69
2022-11-21T03:22:16.265Z,-0.7
2022-11-21T03:22:36.321Z,-0.69
2022-11-21T03:22:56.374Z,-0.73
2022-11-21T03:23:16.403Z,-0.72
2022-11-21T03:23:36.436Z,-0.7
2022-11-21T03:23:56.480Z,-0.72
2022-11-21T03:24:16.500Z,-0.69
2022-11-21T03:24:36.537Z,-0.73
2022-11-21T03:24:56.559Z,-0.73
2022-11-21T03:25:16.600Z,-0.73
2022-11-21T03:25:36.623Z,-0.73
2022-11-21T03:25:56.653Z,-0.75
2022-11-21T03:26:16.689Z,-0.75
2022-11-21T03:26:36.752Z,-0.76
2022-11-21T03:26:56.804Z,-0.76
2022-11-21T03:27:16.865Z,-0.76
2022-11-21T03:27:36.908Z,-0.76
2022-11-21T03:27:56.942Z,-0.73
2022-11-21T03:28:16.973Z,-0.78
2022-11-21T03:28:37.022Z,-0.79
2022-11-21T03:28:57.062Z,-0.78
2022-11-21T03:29:17.084Z,-0.76
2022-11-21T03:29:37.126Z,-0.78
2022-11-21T03:29:57.145Z,-0.75
2022-11-21T03:30:17.177Z,-0.79
2022-11-21T03:30:37.218Z,-0.78
2022-11-21T03:30:57.257Z,-0.78
2022-11-21T03:31:17.271Z,-0.76
2022-11-21T03:31:37.352Z,-0.76
2022-11-21T03:31:57.394Z,-0.76
2022-11-21T03:32:17.470Z,-0.76
2022-11-21T03:32:37.488Z,-0.76
2022-11-21T03:32:57.532Z,-0.76
2022-11-21T03:33:17.567Z,-0.76
2022-11-21T03:33:37.622Z,-0.73
2022-11-21T03:33:57.663Z,-0.76
2022-11-21T03:34:17.694Z,-0.79
2022-11-21T03:34:37.747Z,-0.78
2022-11-21T03:34:57.761Z,-0.79
2022-11-21T03:35:17.802Z,-0.78
2022-11-21T03:35:37.820Z,-0.78
2022-11-21T03:35:57.838Z,-0.78
2022-11-21T03:36:17.862Z,-0.79
2022-11-21T03:36:37.895Z,-0.8
2022-11-21T03:36:57.932Z,-0.78
2022-11-21T03:37:17.974Z,-0.8
2022-11-21T03:37:37.968Z,-0.79
2022-11-21T03:37:58.013Z,-0.79
2022-11-21T03:38:18.049Z,-0.82
2022-11-21T03:38:38.084Z,-0.82
2022-11-21T03:38:58.107Z,-0.82
2022-11-21T03:39:18.135Z,-0.8
2022-11-21T03:39:38.173Z,-0.8
2022-11-21T03:39:58.216Z,-0.82
2022-11-21T03:40:18.248Z,-0.82
2022-11-21T03:40:38.300Z,-0.8
2022-11-21T03:40:58.346Z,-0.82
2022-11-21T03:41:18.427Z,-0.82
2022-11-21T03:41:38.482Z,-0.82
2022-11-21T03:41:58.563Z,-0.82
2022-11-21T03:42:18.576Z,-0.8
2022-11-21T03:42:38.599Z,-0.85
2022-11-21T03:42:58.640Z,-0.82
2022-11-21T03:43:18.651Z,-0.85
2022-11-21T03:43:38.676Z,-0.82
2022-11-21T03:43:58.715Z,-0.83
2022-11-21T03:44:18.781Z,-0.82
2022-11-21T03:44:38.820Z,-0.82
2022-11-21T03:44:58.834Z,-0.82
2022-11-21T03:45:18.905Z,-0.82
2022-11-21T03:45:38.916Z,-0.82
2022-11-21T03:45:58.940Z,-0.83
2022-11-21T03:46:18.978Z,-0.85
2022-11-21T03:46:38.988Z,-0.86
2022-11-21T03:46:59.035Z,-0.83
2022-11-21T03:47:19.078Z,-0.82
2022-11-21T03:47:39.102Z,-0.82
2022-11-21T03:47:59.133Z,-0.85
2022-11-21T03:48:19.157Z,-0.82
2022-11-21T03:48:39.183Z,-0.86
2022-11-21T03:48:59.203Z,-0.82
2022-11-21T03:49:19.231Z,-0.85
2022-11-21T03:49:39.261Z,-0.83
2022-11-21T03:49:59.296Z,-0.85
2022-11-21T03:50:19.330Z,-0.83
2022-11-21T03:50:39.343Z,-0.85
2022-11-21T03:50:59.367Z,-0.85
2022-11-21T03:51:19.394Z,-0.85
2022-11-21T03:51:39.427Z,-0.85
2022-11-21T03:51:59.448Z,-0.85
2022-11-21T03:52:19.490Z,-0.88
2022-11-21T03:52:39.528Z,-0.86
2022-11-21T03:52:59.561Z,-0.88
2022-11-21T03:53:19.620Z,-0.88
2022-11-21T03:53:39.645Z,-0.89
2022-11-21T03:53:59.695Z,-0.88
2022-11-21T03:54:19.727Z,-0.89
2022-11-21T03:54:39.768Z,-0.89
2022-11-21T03:54:59.860Z,-0.89
2022-11-21T03:55:19.841Z,-0.88
2022-11-21T03:55:39.861Z,-0.88
2022-11-21T03:55:59.885Z,-0.88
2022-11-21T03:56:19.905Z,-0.89
2022-11-21T03:56:39.945Z,-0.88
2022-11-21T03:56:59.978Z,-0.89
2022-11-21T03:57:19.992Z,-0.86
2022-11-21T03:57:40.016Z,-0.86
2022-11-21T03:58:00.061Z,-0.89
2022-11-21T03:58:20.080Z,-0.85
2022-11-21T03:58:40.113Z,-0.85
2022-11-21T03:59:00.171Z,-0.83
2022-11-21T03:59:20.201Z,-0.83
2022-11-21T03:59:40.228Z,-0.85
2022-11-21T04:00:00.300Z,-0.85
2022-11-21T04:00:20.291Z,-0.82
2022-11-21T04:00:40.332Z,-0.83
2022-11-21T04:01:00.425Z,-0.85
2022-11-21T04:01:20.484Z,-0.82
2022-11-21T04:01:40.511Z,-0.8
2022-11-21T04:02:00.600Z,-0.8
2022-11-21T04:02:20.520Z,-0.8
2022-11-21T04:02:40.548Z,-0.82
2022-11-21T04:03:00.600Z,-0.82
2022-11-21T04:03:20.633Z,-0.78
2022-11-21T04:03:40.673Z,-0.8
2022-11-21T04:04:00.731Z,-0.79
2022-11-21T04:04:20.756Z,-0.79
2022-11-21T04:04:40.829Z,-0.78
2022-11-21T04:05:00.856Z,-0.79
2022-11-21T04:05:20.882Z,-0.78
2022-11-21T04:05:40.956Z,-0.79
2022-11-21T04:06:01.007Z,-0.78
2022-11-21T04:06:21.005Z,-0.79
2022-11-21T04:06:41.025Z,-0.78
2022-11-21T04:07:01.138Z,-0.76
2022-11-21T04:07:21.145Z,-0.78
2022-11-21T04:07:41.218Z,-0.76
2022-11-21T04:08:01.123Z,-0.76
2022-11-21T04:08:21.180Z,-0.78
2022-11-21T04:08:41.207Z,-0.75
2022-11-21T04:09:01.251Z,-0.76
2022-11-21T04:09:21.374Z,-0.76
2022-11-21T04:09:41.348Z,-0.76
2022-11-21T04:10:01.395Z,-0.73
2022-11-21T04:10:21.398Z,-0.75
2022-11-21T04:10:41.427Z,-0.75
2022-11-21T04:11:01.468Z,-0.73
2022-11-21T04:11:21.498Z,-0.73
2022-11-21T04:11:41.529Z,-0.72
2022-11-21T04:12:06.348Z,-0.73
2022-11-21T04:12:21.596Z,-0.76
2022-11-21T04:12:41.621Z,-0.73
2022-11-21T04:13:01.660Z,-0.73
2022-11-21T04:13:21.683Z,-0.73
2022-11-21T04:13:41.730Z,-0.76
2022-11-21T04:14:01.768Z,-0.75
2022-11-21T04:14:21.804Z,-0.75
2022-11-21T04:14:41.836Z,-0.76
2022-11-21T04:15:01.893Z,-0.75
2022-11-21T04:15:21.917Z,-0.75
2022-11-21T04:15:41.953Z,-0.73
2022-11-21T04:16:02.014Z,-0.73
2022-11-21T04:16:22.060Z,-0.73
2022-11-21T04:16:42.104Z,-0.73
2022-11-21T04:17:02.177Z,-0.75
2022-11-21T04:17:22.194Z,-0.72
2022-11-21T04:17:42.220Z,-0.73
2022-11-21T04:18:02.268Z,-0.73
2022-11-21T04:18:22.358Z,-0.73